sensor_id;sensor_type;location;lat;lon;timestamp;pressure;altitude;pressure_sealevel;temperature
19948;BMP180;10135;50.702;7.276;2024-03-17T06:32:08;100021.00;;;12.30
19948;BMP180;10135;50.702;7.276;2024-03-17T06:34:09;100017.00;;;12.50
19948;BMP180;10135;50.702;7.276;2024-03-17T06:36:10;100010.00;;;12.70
19948;BMP180;10135;50.702;7.276;2024-03-17T06:38:11;100009.00;;;13.00
19948;BMP180;10135;50.702;7.276;2024-03-17T06:40:14;100013.00;;;13.30
19948;BMP180;10135;50.702;7.276;2024-03-17T06:42:15;100006.00;;;13.70
19948;BMP180;10135;50.702;7.276;2024-03-17T06:44:16;100007.00;;;13.90
19948;BMP180;10135;50.702;7.276;2024-03-17T06:46:16;100004.00;;;14.10
19948;BMP180;10135;50.702;7.276;2024-03-17T06:48:18;100007.00;;;14.40
19948;BMP180;10135;50.702;7.276;2024-03-17T06:50:18;100006.00;;;14.70
19948;BMP180;10135;50.702;7.276;2024-03-17T06:52:19;100000.00;;;15.00
19948;BMP180;10135;50.702;7.276;2024-03-17T06:54:20;100005.00;;;15.30
19948;BMP180;10135;50.702;7.276;2024-03-17T06:56:20;100001.00;;;15.60
19948;BMP180;10135;50.702;7.276;2024-03-17T06:58:23;99989.00;;;15.90
19948;BMP180;10135;50.702;7.276;2024-03-17T07:00:24;99995.00;;;16.30
19948;BMP180;10135;50.702;7.276;2024-03-17T07:02:25;99996.00;;;16.50
19948;BMP180;10135;50.702;7.276;2024-03-17T07:04:26;99992.00;;;16.70
19948;BMP180;10135;50.702;7.276;2024-03-17T07:06:26;99992.00;;;17.00
19948;BMP180;10135;50.702;7.276;2024-03-17T07:08:27;99996.00;;;17.30
19948;BMP180;10135;50.702;7.276;2024-03-17T07:10:28;100000.00;;;17.60
19948;BMP180;10135;50.702;7.276;2024-03-17T07:12:29;99990.00;;;17.80
19948;BMP180;10135;50.702;7.276;2024-03-17T07:14:29;99994.00;;;17.90
19948;BMP180;10135;50.702;7.276;2024-03-17T07:16:32;99995.00;;;18.00
19948;BMP180;10135;50.702;7.276;2024-03-17T07:18:33;99998.00;;;18.10
19948;BMP180;10135;50.702;7.276;2024-03-17T07:20:34;99995.00;;;18.30
19948;BMP180;10135;50.702;7.276;2024-03-17T07:22:35;100000.00;;;18.60
19948;BMP180;10135;50.702;7.276;2024-03-17T07:24:35;99993.00;;;18.90
19948;BMP180;10135;50.702;7.276;2024-03-17T07:26:36;99997.00;;;19.20
19948;BMP180;10135;50.702;7.276;2024-03-17T07:28:37;99996.00;;;19.50
19948;BMP180;10135;50.702;7.276;2024-03-17T07:30:53;99996.00;;;19.60
19948;BMP180;10135;50.702;7.276;2024-03-17T07:32:54;99988.00;;;19.60
19948;BMP180;10135;50.702;7.276;2024-03-17T07:34:55;99977.00;;;19.40
19948;BMP180;10135;50.702;7.276;2024-03-17T07:36:55;99983.00;;;19.20
19948;BMP180;10135;50.702;7.276;2024-03-17T07:38:56;99975.00;;;19.00
19948;BMP180;10135;50.702;7.276;2024-03-17T07:41:04;99986.00;;;18.80
19948;BMP180;10135;50.702;7.276;2024-03-17T07:43:05;99972.00;;;18.60
19948;BMP180;10135;50.702;7.276;2024-03-17T07:45:06;99983.00;;;18.30
19948;BMP180;10135;50.702;7.276;2024-03-17T07:47:06;99988.00;;;18.10
19948;BMP180;10135;50.702;7.276;2024-03-17T07:49:07;99989.00;;;18.00
19948;BMP180;10135;50.702;7.276;2024-03-17T07:51:12;99998.00;;;17.80
19948;BMP180;10135;50.702;7.276;2024-03-17T07:53:13;99999.00;;;17.70
19948;BMP180;10135;50.702;7.276;2024-03-17T07:55:14;99994.00;;;17.50
19948;BMP180;10135;50.702;7.276;2024-03-17T07:57:14;100003.00;;;17.40
19948;BMP180;10135;50.702;7.276;2024-03-17T07:59:15;100002.00;;;17.40
19948;BMP180;10135;50.702;7.276;2024-03-17T08:01:18;99996.00;;;17.40
19948;BMP180;10135;50.702;7.276;2024-03-17T08:03:19;100002.00;;;17.50
19948;BMP180;10135;50.702;7.276;2024-03-17T08:05:20;100011.00;;;17.70
19948;BMP180;10135;50.702;7.276;2024-03-17T08:07:20;100015.00;;;17.80
19948;BMP180;10135;50.702;7.276;2024-03-17T08:09:21;100014.00;;;17.90
19948;BMP180;10135;50.702;7.276;2024-03-17T08:11:23;100013.00;;;17.80
19948;BMP180;10135;50.702;7.276;2024-03-17T08:13:25;100026.00;;;17.80
19948;BMP180;10135;50.702;7.276;2024-03-17T08:15:26;100021.00;;;17.70
19948;BMP180;10135;50.702;7.276;2024-03-17T08:17:26;100017.00;;;17.60
19948;BMP180;10135;50.702;7.276;2024-03-17T08:19:27;100017.00;;;17.50
19948;BMP180;10135;50.702;7.276;2024-03-17T08:21:28;100009.00;;;17.40
19948;BMP180;10135;50.702;7.276;2024-03-17T08:23:30;100013.00;;;17.30
19948;BMP180;10135;50.702;7.276;2024-03-17T08:25:32;100018.00;;;17.20
19948;BMP180;10135;50.702;7.276;2024-03-17T08:27:32;100018.00;;;17.10
19948;BMP180;10135;50.702;7.276;2024-03-17T08:29:34;100009.00;;;17.00
19948;BMP180;10135;50.702;7.276;2024-03-17T08:31:35;100007.00;;;17.10
19948;BMP180;10135;50.702;7.276;2024-03-17T08:33:37;100002.00;;;17.10
19948;BMP180;10135;50.702;7.276;2024-03-17T08:35:37;99999.00;;;17.20
19948;BMP180;10135;50.702;7.276;2024-03-17T08:37:38;99995.00;;;17.30
19948;BMP180;10135;50.702;7.276;2024-03-17T08:39:39;99993.00;;;17.40
19948;BMP180;10135;50.702;7.276;2024-03-17T08:41:39;99998.00;;;17.50
19948;BMP180;10135;50.702;7.276;2024-03-17T08:43:40;100005.00;;;17.60
19948;BMP180;10135;50.702;7.276;2024-03-17T08:45:43;100000.00;;;17.60
19948;BMP180;10135;50.702;7.276;2024-03-17T08:47:44;99988.00;;;17.50
19948;BMP180;10135;50.702;7.276;2024-03-17T08:49:44;99982.00;;;17.40
19948;BMP180;10135;50.702;7.276;2024-03-17T08:51:45;99986.00;;;17.20
19948;BMP180;10135;50.702;7.276;2024-03-17T08:53:46;99984.00;;;17.10
19948;BMP180;10135;50.702;7.276;2024-03-17T08:55:46;99990.00;;;16.90
19948;BMP180;10135;50.702;7.276;2024-03-17T08:57:47;99977.00;;;16.80
19948;BMP180;10135;50.702;7.276;2024-03-17T08:59:48;99975.00;;;16.60
19948;BMP180;10135;50.702;7.276;2024-03-17T09:01:48;99968.00;;;16.60
19948;BMP180;10135;50.702;7.276;2024-03-17T09:03:49;99968.00;;;16.60
19948;BMP180;10135;50.702;7.276;2024-03-17T09:05:52;99965.00;;;16.50
19948;BMP180;10135;50.702;7.276;2024-03-17T09:07:55;99957.00;;;16.50
19948;BMP180;10135;50.702;7.276;2024-03-17T09:09:56;99963.00;;;16.60
19948;BMP180;10135;50.702;7.276;2024-03-17T09:11:56;99960.00;;;16.60
19948;BMP180;10135;50.702;7.276;2024-03-17T09:13:57;99957.00;;;16.70
19948;BMP180;10135;50.702;7.276;2024-03-17T09:16:00;99963.00;;;16.70
19948;BMP180;10135;50.702;7.276;2024-03-17T09:18:00;99970.00;;;16.80
19948;BMP180;10135;50.702;7.276;2024-03-17T09:20:04;99968.00;;;16.80
19948;BMP180;10135;50.702;7.276;2024-03-17T09:22:05;99970.00;;;16.80
19948;BMP180;10135;50.702;7.276;2024-03-17T09:24:07;99959.00;;;16.80
19948;BMP180;10135;50.702;7.276;2024-03-17T09:26:10;99962.00;;;16.80
19948;BMP180;10135;50.702;7.276;2024-03-17T09:28:18;99960.00;;;16.80
19948;BMP180;10135;50.702;7.276;2024-03-17T09:30:18;99959.00;;;16.80
19948;BMP180;10135;50.702;7.276;2024-03-17T09:32:20;99957.00;;;16.70
19948;BMP180;10135;50.702;7.276;2024-03-17T09:34:20;99965.00;;;16.70
19948;BMP180;10135;50.702;7.276;2024-03-17T09:36:21;99966.00;;;16.70
19948;BMP180;10135;50.702;7.276;2024-03-17T09:38:22;99972.00;;;16.60
19948;BMP180;10135;50.702;7.276;2024-03-17T09:40:23;99977.00;;;16.60
19948;BMP180;10135;50.702;7.276;2024-03-17T09:42:24;99976.00;;;16.60
19948;BMP180;10135;50.702;7.276;2024-03-17T09:44:25;99982.00;;;16.60
19948;BMP180;10135;50.702;7.276;2024-03-17T09:46:27;99981.00;;;16.60
19948;BMP180;10135;50.702;7.276;2024-03-17T09:48:29;99968.00;;;16.50
19948;BMP180;10135;50.702;7.276;2024-03-17T09:50:31;99976.00;;;16.50
19948;BMP180;10135;50.702;7.276;2024-03-17T09:52:34;99973.00;;;16.50
19948;BMP180;10135;50.702;7.276;2024-03-17T09:54:35;99975.00;;;16.50
19948;BMP180;10135;50.702;7.276;2024-03-17T09:56:35;99979.00;;;16.50
19948;BMP180;10135;50.702;7.276;2024-03-17T09:58:36;99985.00;;;16.50
19948;BMP180;10135;50.702;7.276;2024-03-17T10:00:37;99976.00;;;16.50
19948;BMP180;10135;50.702;7.276;2024-03-17T10:02:46;99978.00;;;16.50
19948;BMP180;10135;50.702;7.276;2024-03-17T10:04:47;99976.00;;;16.60
19948;BMP180;10135;50.702;7.276;2024-03-17T10:06:48;99980.00;;;16.60
19948;BMP180;10135;50.702;7.276;2024-03-17T10:08:51;99976.00;;;16.70
19948;BMP180;10135;50.702;7.276;2024-03-17T10:10:53;99973.00;;;16.70
19948;BMP180;10135;50.702;7.276;2024-03-17T10:12:56;99982.00;;;16.80
19948;BMP180;10135;50.702;7.276;2024-03-17T10:15:01;99983.00;;;16.80
19948;BMP180;10135;50.702;7.276;2024-03-17T10:17:02;99979.00;;;16.80
19948;BMP180;10135;50.702;7.276;2024-03-17T10:19:11;99987.00;;;16.80
19948;BMP180;10135;50.702;7.276;2024-03-17T10:21:26;99982.00;;;16.80
19948;BMP180;10135;50.702;7.276;2024-03-17T10:23:28;99983.00;;;16.80
19948;BMP180;10135;50.702;7.276;2024-03-17T10:25:31;99987.00;;;16.80
19948;BMP180;10135;50.702;7.276;2024-03-17T10:27:32;99977.00;;;16.80
19948;BMP180;10135;50.702;7.276;2024-03-17T10:29:34;99979.00;;;16.80
19948;BMP180;10135;50.702;7.276;2024-03-17T10:31:41;99978.00;;;16.80
19948;BMP180;10135;50.702;7.276;2024-03-17T10:33:42;99976.00;;;16.80
19948;BMP180;10135;50.702;7.276;2024-03-17T10:35:43;99977.00;;;16.80
19948;BMP180;10135;50.702;7.276;2024-03-17T10:37:56;99974.00;;;16.90
19948;BMP180;10135;50.702;7.276;2024-03-17T10:39:58;99976.00;;;16.90
19948;BMP180;10135;50.702;7.276;2024-03-17T10:42:02;99969.00;;;17.00
19948;BMP180;10135;50.702;7.276;2024-03-17T10:44:04;99975.00;;;17.00
19948;BMP180;10135;50.702;7.276;2024-03-17T10:46:05;99971.00;;;17.00
19948;BMP180;10135;50.702;7.276;2024-03-17T10:48:08;99977.00;;;17.00
19948;BMP180;10135;50.702;7.276;2024-03-17T10:50:19;99971.00;;;17.00
19948;BMP180;10135;50.702;7.276;2024-03-17T10:52:21;99968.00;;;17.10
19948;BMP180;10135;50.702;7.276;2024-03-17T10:54:25;99971.00;;;17.10
19948;BMP180;10135;50.702;7.276;2024-03-17T10:56:29;99969.00;;;17.10
19948;BMP180;10135;50.702;7.276;2024-03-17T10:58:44;99978.00;;;17.10
19948;BMP180;10135;50.702;7.276;2024-03-17T11:00:50;99974.00;;;17.10
19948;BMP180;10135;50.702;7.276;2024-03-17T11:02:53;99974.00;;;17.10
19948;BMP180;10135;50.702;7.276;2024-03-17T11:04:59;99974.00;;;17.20
19948;BMP180;10135;50.702;7.276;2024-03-17T11:07:00;99966.00;;;17.20
19948;BMP180;10135;50.702;7.276;2024-03-17T11:09:01;99966.00;;;17.30
19948;BMP180;10135;50.702;7.276;2024-03-17T11:11:04;99965.00;;;17.30
19948;BMP180;10135;50.702;7.276;2024-03-17T11:13:05;99967.00;;;17.40
19948;BMP180;10135;50.702;7.276;2024-03-17T11:17:27;99966.00;;;17.50
19948;BMP180;10135;50.702;7.276;2024-03-17T11:19:27;99966.00;;;17.50
19948;BMP180;10135;50.702;7.276;2024-03-17T11:21:28;99969.00;;;17.50
19948;BMP180;10135;50.702;7.276;2024-03-17T11:23:30;99977.00;;;17.50
19948;BMP180;10135;50.702;7.276;2024-03-17T11:25:38;99971.00;;;17.50
19948;BMP180;10135;50.702;7.276;2024-03-17T11:27:40;99968.00;;;17.50
19948;BMP180;10135;50.702;7.276;2024-03-17T11:29:40;99968.00;;;17.60
19948;BMP180;10135;50.702;7.276;2024-03-17T11:31:44;99972.00;;;17.60
19948;BMP180;10135;50.702;7.276;2024-03-17T11:33:46;99971.00;;;17.70
19948;BMP180;10135;50.702;7.276;2024-03-17T11:35:47;99967.00;;;17.70
19948;BMP180;10135;50.702;7.276;2024-03-17T11:37:47;99965.00;;;17.70
19948;BMP180;10135;50.702;7.276;2024-03-17T11:39:55;99973.00;;;17.80
19948;BMP180;10135;50.702;7.276;2024-03-17T11:42:05;99972.00;;;17.80
19948;BMP180;10135;50.702;7.276;2024-03-17T11:46:25;99963.00;;;17.90
19948;BMP180;10135;50.702;7.276;2024-03-17T11:48:26;99965.00;;;17.90
19948;BMP180;10135;50.702;7.276;2024-03-17T11:50:28;99962.00;;;17.90
19948;BMP180;10135;50.702;7.276;2024-03-17T11:52:28;99961.00;;;17.90
19948;BMP180;10135;50.702;7.276;2024-03-17T11:54:33;99955.00;;;18.00
19948;BMP180;10135;50.702;7.276;2024-03-17T11:56:33;99950.00;;;18.00
19948;BMP180;10135;50.702;7.276;2024-03-17T11:58:34;99948.00;;;18.00
19948;BMP180;10135;50.702;7.276;2024-03-17T12:00:37;99939.00;;;18.00
19948;BMP180;10135;50.702;7.276;2024-03-17T12:02:38;99937.00;;;18.00
19948;BMP180;10135;50.702;7.276;2024-03-17T12:04:40;99934.00;;;17.90
19948;BMP180;10135;50.702;7.276;2024-03-17T12:06:45;99933.00;;;17.90
19948;BMP180;10135;50.702;7.276;2024-03-17T12:08:46;99928.00;;;17.90
19948;BMP180;10135;50.702;7.276;2024-03-17T12:10:49;99926.00;;;17.90
19948;BMP180;10135;50.702;7.276;2024-03-17T12:12:50;99926.00;;;17.90
19948;BMP180;10135;50.702;7.276;2024-03-17T12:14:51;99932.00;;;17.90
19948;BMP180;10135;50.702;7.276;2024-03-17T12:17:07;99927.00;;;17.90
19948;BMP180;10135;50.702;7.276;2024-03-17T12:19:08;99926.00;;;17.90
19948;BMP180;10135;50.702;7.276;2024-03-17T12:21:13;99924.00;;;17.90
19948;BMP180;10135;50.702;7.276;2024-03-17T12:23:15;99927.00;;;18.00
19948;BMP180;10135;50.702;7.276;2024-03-17T12:25:21;99919.00;;;18.00
19948;BMP180;10135;50.702;7.276;2024-03-17T12:27:26;99908.00;;;18.00
19948;BMP180;10135;50.702;7.276;2024-03-17T12:29:30;99902.00;;;18.00
19948;BMP180;10135;50.702;7.276;2024-03-17T12:31:33;99904.00;;;18.00
19948;BMP180;10135;50.702;7.276;2024-03-17T12:33:33;99898.00;;;18.10
19948;BMP180;10135;50.702;7.276;2024-03-17T12:35:36;99899.00;;;18.10
19948;BMP180;10135;50.702;7.276;2024-03-17T12:37:37;99903.00;;;18.10
19948;BMP180;10135;50.702;7.276;2024-03-17T12:39:37;99905.00;;;18.10
19948;BMP180;10135;50.702;7.276;2024-03-17T12:41:41;99900.00;;;18.20
19948;BMP180;10135;50.702;7.276;2024-03-17T12:43:49;99897.00;;;18.20
19948;BMP180;10135;50.702;7.276;2024-03-17T12:45:49;99891.00;;;18.20
19948;BMP180;10135;50.702;7.276;2024-03-17T12:47:51;99887.00;;;18.20
19948;BMP180;10135;50.702;7.276;2024-03-17T12:49:55;99883.00;;;18.20
19948;BMP180;10135;50.702;7.276;2024-03-17T12:51:56;99886.00;;;18.20
19948;BMP180;10135;50.702;7.276;2024-03-17T12:54:17;99881.00;;;18.20
19948;BMP180;10135;50.702;7.276;2024-03-17T12:56:23;99874.00;;;18.30
19948;BMP180;10135;50.702;7.276;2024-03-17T12:58:42;99867.00;;;18.30
19948;BMP180;10135;50.702;7.276;2024-03-17T13:01:04;99863.00;;;18.30
19948;BMP180;10135;50.702;7.276;2024-03-17T13:03:07;99867.00;;;18.30
19948;BMP180;10135;50.702;7.276;2024-03-17T13:07:16;99858.00;;;18.30
19948;BMP180;10135;50.702;7.276;2024-03-17T13:09:17;99861.00;;;18.30
19948;BMP180;10135;50.702;7.276;2024-03-17T13:11:18;99853.00;;;18.20
19948;BMP180;10135;50.702;7.276;2024-03-17T13:13:18;99853.00;;;18.20
19948;BMP180;10135;50.702;7.276;2024-03-17T13:15:20;99846.00;;;18.20
19948;BMP180;10135;50.702;7.276;2024-03-17T13:17:20;99845.00;;;18.20
19948;BMP180;10135;50.702;7.276;2024-03-17T13:19:21;99847.00;;;18.20
19948;BMP180;10135;50.702;7.276;2024-03-17T13:21:21;99834.00;;;18.20
19948;BMP180;10135;50.702;7.276;2024-03-17T13:23:22;99836.00;;;18.20
19948;BMP180;10135;50.702;7.276;2024-03-17T13:25:25;99833.00;;;18.20
19948;BMP180;10135;50.702;7.276;2024-03-17T13:27:33;99832.00;;;18.10
19948;BMP180;10135;50.702;7.276;2024-03-17T13:29:35;99826.00;;;18.10
19948;BMP180;10135;50.702;7.276;2024-03-17T13:31:38;99834.00;;;18.10
19948;BMP180;10135;50.702;7.276;2024-03-17T13:33:39;99824.00;;;18.10
19948;BMP180;10135;50.702;7.276;2024-03-17T13:35:40;99813.00;;;18.10
19948;BMP180;10135;50.702;7.276;2024-03-17T13:37:41;99803.00;;;18.00
19948;BMP180;10135;50.702;7.276;2024-03-17T13:39:42;99811.00;;;18.00
19948;BMP180;10135;50.702;7.276;2024-03-17T13:41:43;99805.00;;;18.00
19948;BMP180;10135;50.702;7.276;2024-03-17T13:43:43;99798.00;;;18.00
19948;BMP180;10135;50.702;7.276;2024-03-17T13:45:44;99805.00;;;18.00
19948;BMP180;10135;50.702;7.276;2024-03-17T13:47:57;99800.00;;;17.90
19948;BMP180;10135;50.702;7.276;2024-03-17T13:49:57;99802.00;;;17.90
19948;BMP180;10135;50.702;7.276;2024-03-17T13:51:58;99798.00;;;17.90
19948;BMP180;10135;50.702;7.276;2024-03-17T13:53:59;99804.00;;;17.80
19948;BMP180;10135;50.702;7.276;2024-03-17T13:55:59;99803.00;;;17.80
19948;BMP180;10135;50.702;7.276;2024-03-17T13:58:00;99807.00;;;17.80
19948;BMP180;10135;50.702;7.276;2024-03-17T14:00:01;99798.00;;;17.80
19948;BMP180;10135;50.702;7.276;2024-03-17T14:02:03;99794.00;;;17.70
19948;BMP180;10135;50.702;7.276;2024-03-17T14:04:05;99796.00;;;17.70
19948;BMP180;10135;50.702;7.276;2024-03-17T14:06:05;99793.00;;;17.70
19948;BMP180;10135;50.702;7.276;2024-03-17T14:08:07;99797.00;;;17.70
19948;BMP180;10135;50.702;7.276;2024-03-17T14:10:10;99796.00;;;17.70
19948;BMP180;10135;50.702;7.276;2024-03-17T14:12:11;99793.00;;;17.60
19948;BMP180;10135;50.702;7.276;2024-03-17T14:14:12;99791.00;;;17.60
19948;BMP180;10135;50.702;7.276;2024-03-17T14:16:13;99792.00;;;17.60
19948;BMP180;10135;50.702;7.276;2024-03-17T14:18:13;99791.00;;;17.60
19948;BMP180;10135;50.702;7.276;2024-03-17T14:20:15;99790.00;;;17.60
19948;BMP180;10135;50.702;7.276;2024-03-17T14:22:18;99791.00;;;17.60
19948;BMP180;10135;50.702;7.276;2024-03-17T14:24:19;99782.00;;;17.60
19948;BMP180;10135;50.702;7.276;2024-03-17T14:26:19;99784.00;;;17.60
19948;BMP180;10135;50.702;7.276;2024-03-17T14:28:20;99778.00;;;17.60
19948;BMP180;10135;50.702;7.276;2024-03-17T14:30:22;99781.00;;;17.60
19948;BMP180;10135;50.702;7.276;2024-03-17T14:32:23;99775.00;;;17.60
19948;BMP180;10135;50.702;7.276;2024-03-17T14:34:24;99776.00;;;17.60
19948;BMP180;10135;50.702;7.276;2024-03-17T14:36:27;99771.00;;;17.60
19948;BMP180;10135;50.702;7.276;2024-03-17T14:38:29;99773.00;;;17.70
19948;BMP180;10135;50.702;7.276;2024-03-17T14:40:30;99779.00;;;17.70
19948;BMP180;10135;50.702;7.276;2024-03-17T14:42:31;99773.00;;;17.70
19948;BMP180;10135;50.702;7.276;2024-03-17T14:44:34;99764.00;;;17.70
19948;BMP180;10135;50.702;7.276;2024-03-17T14:46:34;99763.00;;;17.70
19948;BMP180;10135;50.702;7.276;2024-03-17T14:48:35;99768.00;;;17.80
19948;BMP180;10135;50.702;7.276;2024-03-17T14:50:36;99761.00;;;17.80
19948;BMP180;10135;50.702;7.276;2024-03-17T14:52:37;99765.00;;;17.90
19948;BMP180;10135;50.702;7.276;2024-03-17T14:54:37;99763.00;;;17.90
19948;BMP180;10135;50.702;7.276;2024-03-17T14:56:38;99760.00;;;17.90
19948;BMP180;10135;50.702;7.276;2024-03-17T14:58:40;99752.00;;;17.90
19948;BMP180;10135;50.702;7.276;2024-03-17T15:00:41;99747.00;;;17.90
19948;BMP180;10135;50.702;7.276;2024-03-17T15:02:44;99748.00;;;17.90
19948;BMP180;10135;50.702;7.276;2024-03-17T15:04:48;99746.00;;;18.00
19948;BMP180;10135;50.702;7.276;2024-03-17T15:06:52;99745.00;;;18.00
19948;BMP180;10135;50.702;7.276;2024-03-17T15:08:54;99742.00;;;18.00
19948;BMP180;10135;50.702;7.276;2024-03-17T15:10:55;99738.00;;;18.00
19948;BMP180;10135;50.702;7.276;2024-03-17T15:12:56;99736.00;;;18.00
19948;BMP180;10135;50.702;7.276;2024-03-17T15:14:57;99735.00;;;18.00
19948;BMP180;10135;50.702;7.276;2024-03-17T15:16:58;99729.00;;;18.00
19948;BMP180;10135;50.702;7.276;2024-03-17T15:18:59;99727.00;;;18.00
19948;BMP180;10135;50.702;7.276;2024-03-17T15:21:00;99726.00;;;18.00
19948;BMP180;10135;50.702;7.276;2024-03-17T15:23:01;99719.00;;;18.10
19948;BMP180;10135;50.702;7.276;2024-03-17T15:25:03;99713.00;;;18.00
19948;BMP180;10135;50.702;7.276;2024-03-17T15:27:06;99715.00;;;18.00
19948;BMP180;10135;50.702;7.276;2024-03-17T15:29:06;99713.00;;;18.10
19948;BMP180;10135;50.702;7.276;2024-03-17T15:31:08;99712.00;;;18.10
19948;BMP180;10135;50.702;7.276;2024-03-17T15:33:09;99711.00;;;18.10
19948;BMP180;10135;50.702;7.276;2024-03-17T15:35:11;99704.00;;;18.10
19948;BMP180;10135;50.702;7.276;2024-03-17T15:37:13;99707.00;;;18.10
19948;BMP180;10135;50.702;7.276;2024-03-17T15:39:14;99713.00;;;18.10
19948;BMP180;10135;50.702;7.276;2024-03-17T15:41:15;99706.00;;;18.10
19948;BMP180;10135;50.702;7.276;2024-03-17T15:43:16;99710.00;;;18.10
19948;BMP180;10135;50.702;7.276;2024-03-17T15:45:18;99709.00;;;18.10
19948;BMP180;10135;50.702;7.276;2024-03-17T15:47:24;99703.00;;;18.00
19948;BMP180;10135;50.702;7.276;2024-03-17T15:49:24;99705.00;;;18.00
19948;BMP180;10135;50.702;7.276;2024-03-17T15:51:25;99705.00;;;18.00
19948;BMP180;10135;50.702;7.276;2024-03-17T15:53:26;99701.00;;;17.90
19948;BMP180;10135;50.702;7.276;2024-03-17T15:55:27;99704.00;;;17.90
19948;BMP180;10135;50.702;7.276;2024-03-17T15:57:29;99693.00;;;17.90
19948;BMP180;10135;50.702;7.276;2024-03-17T15:59:30;99702.00;;;17.80
19948;BMP180;10135;50.702;7.276;2024-03-17T16:01:31;99702.00;;;17.80
19948;BMP180;10135;50.702;7.276;2024-03-17T16:03:34;99700.00;;;17.80
19948;BMP180;10135;50.702;7.276;2024-03-17T16:05:35;99698.00;;;17.70
19948;BMP180;10135;50.702;7.276;2024-03-17T16:07:36;99693.00;;;17.70
19948;BMP180;10135;50.702;7.276;2024-03-17T16:09:38;99691.00;;;17.70
19948;BMP180;10135;50.702;7.276;2024-03-17T16:11:39;99685.00;;;17.70
19948;BMP180;10135;50.702;7.276;2024-03-17T16:13:40;99693.00;;;17.60
19948;BMP180;10135;50.702;7.276;2024-03-17T16:15:42;99681.00;;;17.60
19948;BMP180;10135;50.702;7.276;2024-03-17T16:17:44;99675.00;;;17.60
19948;BMP180;10135;50.702;7.276;2024-03-17T16:19:45;99673.00;;;17.50
19948;BMP180;10135;50.702;7.276;2024-03-17T16:21:46;99665.00;;;17.50
19948;BMP180;10135;50.702;7.276;2024-03-17T16:24:08;99673.00;;;17.40
19948;BMP180;10135;50.702;7.276;2024-03-17T16:26:12;99664.00;;;17.50
19948;BMP180;10135;50.702;7.276;2024-03-17T16:28:14;99664.00;;;17.40
19948;BMP180;10135;50.702;7.276;2024-03-17T16:30:15;99660.00;;;17.40
19948;BMP180;10135;50.702;7.276;2024-03-17T16:32:16;99666.00;;;17.40
19948;BMP180;10135;50.702;7.276;2024-03-17T16:34:18;99665.00;;;17.40
19948;BMP180;10135;50.702;7.276;2024-03-17T16:36:23;99671.00;;;17.40
19948;BMP180;10135;50.702;7.276;2024-03-17T16:38:23;99674.00;;;17.40
19948;BMP180;10135;50.702;7.276;2024-03-17T16:40:24;99677.00;;;17.40
19948;BMP180;10135;50.702;7.276;2024-03-17T16:42:25;99679.00;;;17.40
19948;BMP180;10135;50.702;7.276;2024-03-17T16:44:51;99683.00;;;17.40
19948;BMP180;10135;50.702;7.276;2024-03-17T16:47:26;99686.00;;;17.40
19948;BMP180;10135;50.702;7.276;2024-03-17T16:49:28;99684.00;;;17.40
19948;BMP180;10135;50.702;7.276;2024-03-17T16:51:30;99688.00;;;17.40
19948;BMP180;10135;50.702;7.276;2024-03-17T16:53:31;99688.00;;;17.30
19948;BMP180;10135;50.702;7.276;2024-03-17T16:55:31;99689.00;;;17.30
19948;BMP180;10135;50.702;7.276;2024-03-17T16:57:33;99692.00;;;17.30
19948;BMP180;10135;50.702;7.276;2024-03-17T16:59:35;99687.00;;;17.30
19948;BMP180;10135;50.702;7.276;2024-03-17T17:01:35;99688.00;;;17.30
19948;BMP180;10135;50.702;7.276;2024-03-17T17:03:38;99695.00;;;17.20
19948;BMP180;10135;50.702;7.276;2024-03-17T17:05:39;99693.00;;;17.20
19948;BMP180;10135;50.702;7.276;2024-03-17T17:07:43;99694.00;;;17.20
19948;BMP180;10135;50.702;7.276;2024-03-17T17:09:44;99690.00;;;17.20
19948;BMP180;10135;50.702;7.276;2024-03-17T17:11:45;99699.00;;;17.20
19948;BMP180;10135;50.702;7.276;2024-03-17T17:13:51;99694.00;;;17.10
19948;BMP180;10135;50.702;7.276;2024-03-17T17:15:52;99694.00;;;17.10
19948;BMP180;10135;50.702;7.276;2024-03-17T17:17:52;99688.00;;;17.10
19948;BMP180;10135;50.702;7.276;2024-03-17T17:19:57;99689.00;;;17.10
19948;BMP180;10135;50.702;7.276;2024-03-17T17:21:58;99689.00;;;17.00
19948;BMP180;10135;50.702;7.276;2024-03-17T17:24:01;99696.00;;;17.00
19948;BMP180;10135;50.702;7.276;2024-03-17T17:26:04;99687.00;;;17.00
19948;BMP180;10135;50.702;7.276;2024-03-17T17:28:05;99692.00;;;17.00
19948;BMP180;10135;50.702;7.276;2024-03-17T17:30:07;99687.00;;;17.00
19948;BMP180;10135;50.702;7.276;2024-03-17T17:32:08;99683.00;;;16.90
19948;BMP180;10135;50.702;7.276;2024-03-17T17:34:08;99685.00;;;16.90
19948;BMP180;10135;50.702;7.276;2024-03-17T17:36:09;99680.00;;;16.90
19948;BMP180;10135;50.702;7.276;2024-03-17T17:38:13;99684.00;;;16.80
19948;BMP180;10135;50.702;7.276;2024-03-17T17:40:13;99686.00;;;16.80
19948;BMP180;10135;50.702;7.276;2024-03-17T17:42:14;99695.00;;;16.80
19948;BMP180;10135;50.702;7.276;2024-03-17T17:44:15;99687.00;;;16.80
19948;BMP180;10135;50.702;7.276;2024-03-17T17:46:18;99685.00;;;16.70
19948;BMP180;10135;50.702;7.276;2024-03-17T17:48:20;99681.00;;;16.70
19948;BMP180;10135;50.702;7.276;2024-03-17T17:50:20;99685.00;;;16.70
19948;BMP180;10135;50.702;7.276;2024-03-17T17:52:21;99689.00;;;16.60
19948;BMP180;10135;50.702;7.276;2024-03-17T17:54:21;99694.00;;;16.60
19948;BMP180;10135;50.702;7.276;2024-03-17T17:56:23;99691.00;;;16.60
19948;BMP180;10135;50.702;7.276;2024-03-17T17:58:24;99692.00;;;16.50
19948;BMP180;10135;50.702;7.276;2024-03-17T18:00:25;99694.00;;;16.50
19948;BMP180;10135;50.702;7.276;2024-03-17T18:02:26;99697.00;;;16.50
19948;BMP180;10135;50.702;7.276;2024-03-17T18:04:28;99698.00;;;16.50
19948;BMP180;10135;50.702;7.276;2024-03-17T18:06:29;99698.00;;;16.40
19948;BMP180;10135;50.702;7.276;2024-03-17T18:08:32;99686.00;;;16.40
19948;BMP180;10135;50.702;7.276;2024-03-17T18:10:39;99693.00;;;16.30
19948;BMP180;10135;50.702;7.276;2024-03-17T18:12:39;99686.00;;;16.30
19948;BMP180;10135;50.702;7.276;2024-03-17T18:14:40;99687.00;;;16.30
19948;BMP180;10135;50.702;7.276;2024-03-17T18:16:41;99687.00;;;16.30
19948;BMP180;10135;50.702;7.276;2024-03-17T18:18:41;99692.00;;;16.30
19948;BMP180;10135;50.702;7.276;2024-03-17T18:20:54;99701.00;;;16.20